sensor_id;sensor_type;location;lat;lon;timestamp;P1;durP1;ratioP1;P2;durP2;ratioP2
2305;SDS011;1161;51.922;8.896;2024-03-25T00:00:25;13.77;;;4.30;;
2305;SDS011;1161;51.922;8.896;2024-03-25T00:02:50;24.63;;;6.37;;
2305;SDS011;1161;51.922;8.896;2024-03-25T00:05:18;17.53;;;5.73;;
2305;SDS011;1161;51.922;8.896;2024-03-25T00:07:48;13.87;;;5.47;;
2305;SDS011;1161;51.922;8.896;2024-03-25T00:10:15;27.77;;;6.00;;
2305;SDS011;1161;51.922;8.896;2024-03-25T00:12:41;14.00;;;5.50;;
2305;SDS011;1161;51.922;8.896;2024-03-25T00:15:10;16.80;;;5.57;;
2305;SDS011;1161;51.922;8.896;2024-03-25T00:17:36;15.53;;;6.03;;
2305;SDS011;1161;51.922;8.896;2024-03-25T00:20:03;15.23;;;3.60;;
2305;SDS011;1161;51.922;8.896;2024-03-25T00:22:34;16.07;;;5.00;;
2305;SDS011;1161;51.922;8.896;2024-03-25T00:25:01;11.70;;;4.27;;
2305;SDS011;1161;51.922;8.896;2024-03-25T00:27:27;21.60;;;6.57;;
2305;SDS011;1161;51.922;8.896;2024-03-25T00:29:55;22.13;;;5.00;;
2305;SDS011;1161;51.922;8.896;2024-03-25T00:32:22;15.53;;;5.83;;
2305;SDS011;1161;51.922;8.896;2024-03-25T00:34:49;22.67;;;5.20;;
2305;SDS011;1161;51.922;8.896;2024-03-25T00:37:15;17.53;;;4.67;;
2305;SDS011;1161;51.922;8.896;2024-03-25T00:39:42;25.43;;;4.90;;
2305;SDS011;1161;51.922;8.896;2024-03-25T00:42:08;11.70;;;4.80;;
2305;SDS011;1161;51.922;8.896;2024-03-25T00:44:34;20.37;;;4.73;;
2305;SDS011;1161;51.922;8.896;2024-03-25T00:47:00;18.13;;;4.50;;
2305;SDS011;1161;51.922;8.896;2024-03-25T00:49:29;11.87;;;4.53;;
2305;SDS011;1161;51.922;8.896;2024-03-25T00:51:55;25.90;;;6.70;;
2305;SDS011;1161;51.922;8.896;2024-03-25T00:54:22;16.70;;;5.53;;
2305;SDS011;1161;51.922;8.896;2024-03-25T00:56:48;15.73;;;7.00;;
2305;SDS011;1161;51.922;8.896;2024-03-25T00:59:16;18.53;;;4.57;;
2305;SDS011;1161;51.922;8.896;2024-03-25T01:01:42;20.33;;;4.67;;
2305;SDS011;1161;51.922;8.896;2024-03-25T01:04:09;12.77;;;5.77;;
2305;SDS011;1161;51.922;8.896;2024-03-25T01:06:36;15.80;;;5.50;;
2305;SDS011;1161;51.922;8.896;2024-03-25T01:09:03;31.73;;;7.00;;
2305;SDS011;1161;51.922;8.896;2024-03-25T01:11:29;12.20;;;3.50;;
2305;SDS011;1161;51.922;8.896;2024-03-25T01:13:56;11.13;;;4.00;;
2305;SDS011;1161;51.922;8.896;2024-03-25T01:16:22;17.20;;;5.37;;
2305;SDS011;1161;51.922;8.896;2024-03-25T01:18:49;20.37;;;6.47;;
2305;SDS011;1161;51.922;8.896;2024-03-25T01:21:14;31.10;;;6.40;;
2305;SDS011;1161;51.922;8.896;2024-03-25T01:23:42;14.00;;;4.60;;
2305;SDS011;1161;51.922;8.896;2024-03-25T01:26:08;8.80;;;4.33;;
2305;SDS011;1161;51.922;8.896;2024-03-25T01:28:35;18.00;;;5.70;;
2305;SDS011;1161;51.922;8.896;2024-03-25T01:31:01;11.63;;;4.90;;
2305;SDS011;1161;51.922;8.896;2024-03-25T01:33:28;25.80;;;5.50;;
2305;SDS011;1161;51.922;8.896;2024-03-25T01:35:53;12.20;;;4.30;;
2305;SDS011;1161;51.922;8.896;2024-03-25T01:38:21;13.83;;;4.97;;
2305;SDS011;1161;51.922;8.896;2024-03-25T01:40:48;15.83;;;5.47;;
2305;SDS011;1161;51.922;8.896;2024-03-25T01:43:15;7.83;;;5.43;;
2305;SDS011;1161;51.922;8.896;2024-03-25T01:45:41;7.67;;;5.17;;
2305;SDS011;1161;51.922;8.896;2024-03-25T01:48:08;17.53;;;5.47;;
2305;SDS011;1161;51.922;8.896;2024-03-25T01:50:35;19.77;;;6.40;;
2305;SDS011;1161;51.922;8.896;2024-03-25T01:53:04;26.67;;;5.23;;
2305;SDS011;1161;51.922;8.896;2024-03-25T01:55:31;7.10;;;3.87;;
2305;SDS011;1161;51.922;8.896;2024-03-25T01:58:01;12.33;;;4.10;;
2305;SDS011;1161;51.922;8.896;2024-03-25T02:00:27;10.90;;;4.23;;
2305;SDS011;1161;51.922;8.896;2024-03-25T02:02:54;8.20;;;2.63;;
2305;SDS011;1161;51.922;8.896;2024-03-25T02:05:21;4.63;;;3.00;;
2305;SDS011;1161;51.922;8.896;2024-03-25T02:07:48;14.83;;;3.83;;
2305;SDS011;1161;51.922;8.896;2024-03-25T02:10:14;6.73;;;3.50;;
2305;SDS011;1161;51.922;8.896;2024-03-25T02:12:42;6.87;;;2.60;;
2305;SDS011;1161;51.922;8.896;2024-03-25T02:15:09;21.07;;;3.70;;
2305;SDS011;1161;51.922;8.896;2024-03-25T02:17:36;12.27;;;3.60;;
2305;SDS011;1161;51.922;8.896;2024-03-25T02:20:02;11.63;;;4.87;;
2305;SDS011;1161;51.922;8.896;2024-03-25T02:22:31;36.40;;;5.33;;
2305;SDS011;1161;51.922;8.896;2024-03-25T02:24:57;9.77;;;3.80;;
2305;SDS011;1161;51.922;8.896;2024-03-25T02:27:25;6.53;;;4.03;;
2305;SDS011;1161;51.922;8.896;2024-03-25T02:29:53;16.97;;;5.23;;
2305;SDS011;1161;51.922;8.896;2024-03-25T02:32:20;7.80;;;5.97;;
2305;SDS011;1161;51.922;8.896;2024-03-25T02:34:46;29.13;;;5.40;;
2305;SDS011;1161;51.922;8.896;2024-03-25T02:37:16;21.50;;;4.60;;
2305;SDS011;1161;51.922;8.896;2024-03-25T02:39:42;26.53;;;5.53;;
2305;SDS011;1161;51.922;8.896;2024-03-25T02:42:10;13.97;;;4.73;;
2305;SDS011;1161;51.922;8.896;2024-03-25T02:44:37;15.87;;;3.80;;
2305;SDS011;1161;51.922;8.896;2024-03-25T02:47:04;9.00;;;2.70;;
2305;SDS011;1161;51.922;8.896;2024-03-25T02:49:30;13.30;;;3.87;;
2305;SDS011;1161;51.922;8.896;2024-03-25T02:51:57;4.10;;;3.00;;
2305;SDS011;1161;51.922;8.896;2024-03-25T02:54:25;18.73;;;4.67;;
2305;SDS011;1161;51.922;8.896;2024-03-25T02:56:51;13.40;;;4.27;;
2305;SDS011;1161;51.922;8.896;2024-03-25T02:59:18;9.60;;;4.30;;
2305;SDS011;1161;51.922;8.896;2024-03-25T03:01:45;16.20;;;3.60;;
2305;SDS011;1161;51.922;8.896;2024-03-25T03:04:12;8.43;;;4.53;;
2305;SDS011;1161;51.922;8.896;2024-03-25T03:06:38;6.43;;;3.73;;
2305;SDS011;1161;51.922;8.896;2024-03-25T03:09:05;7.37;;;3.40;;
2305;SDS011;1161;51.922;8.896;2024-03-25T03:11:30;6.10;;;3.30;;
2305;SDS011;1161;51.922;8.896;2024-03-25T03:13:57;12.53;;;4.83;;
2305;SDS011;1161;51.922;8.896;2024-03-25T03:16:23;9.23;;;4.03;;
2305;SDS011;1161;51.922;8.896;2024-03-25T03:18:51;15.20;;;3.90;;
2305;SDS011;1161;51.922;8.896;2024-03-25T03:21:17;8.57;;;3.80;;
2305;SDS011;1161;51.922;8.896;2024-03-25T03:23:44;26.53;;;4.40;;
2305;SDS011;1161;51.922;8.896;2024-03-25T03:26:10;12.33;;;4.80;;
2305;SDS011;1161;51.922;8.896;2024-03-25T03:28:37;8.23;;;4.60;;
2305;SDS011;1161;51.922;8.896;2024-03-25T03:31:03;12.33;;;3.57;;
2305;SDS011;1161;51.922;8.896;2024-03-25T03:33:30;13.97;;;4.33;;
2305;SDS011;1161;51.922;8.896;2024-03-25T03:35:58;13.57;;;3.40;;
2305;SDS011;1161;51.922;8.896;2024-03-25T03:38:24;7.47;;;3.03;;
2305;SDS011;1161;51.922;8.896;2024-03-25T03:40:57;13.80;;;3.87;;
2305;SDS011;1161;51.922;8.896;2024-03-25T03:43:24;10.87;;;3.80;;
2305;SDS011;1161;51.922;8.896;2024-03-25T03:45:51;10.13;;;3.40;;
2305;SDS011;1161;51.922;8.896;2024-03-25T03:48:18;7.27;;;4.40;;
2305;SDS011;1161;51.922;8.896;2024-03-25T03:50:45;26.90;;;5.33;;
2305;SDS011;1161;51.922;8.896;2024-03-25T03:53:13;24.77;;;5.17;;
2305;SDS011;1161;51.922;8.896;2024-03-25T03:55:39;14.77;;;6.40;;
2305;SDS011;1161;51.922;8.896;2024-03-25T03:58:06;17.67;;;4.17;;
2305;SDS011;1161;51.922;8.896;2024-03-25T04:00:33;15.93;;;6.60;;
2305;SDS011;1161;51.922;8.896;2024-03-25T04:03:01;22.93;;;5.40;;
2305;SDS011;1161;51.922;8.896;2024-03-25T04:05:36;13.63;;;4.70;;
2305;SDS011;1161;51.922;8.896;2024-03-25T04:08:05;25.17;;;7.23;;
2305;SDS011;1161;51.922;8.896;2024-03-25T04:10:36;16.23;;;6.70;;
2305;SDS011;1161;51.922;8.896;2024-03-25T04:13:04;18.30;;;5.70;;
2305;SDS011;1161;51.922;8.896;2024-03-25T04:15:32;25.67;;;6.50;;
2305;SDS011;1161;51.922;8.896;2024-03-25T04:18:02;35.37;;;6.43;;
2305;SDS011;1161;51.922;8.896;2024-03-25T04:20:35;25.23;;;8.10;;
2305;SDS011;1161;51.922;8.896;2024-03-25T04:23:03;22.33;;;6.83;;
2305;SDS011;1161;51.922;8.896;2024-03-25T04:25:37;19.27;;;7.10;;
2305;SDS011;1161;51.922;8.896;2024-03-25T04:28:05;12.97;;;6.93;;
2305;SDS011;1161;51.922;8.896;2024-03-25T04:30:34;17.40;;;5.30;;
2305;SDS011;1161;51.922;8.896;2024-03-25T04:33:01;31.90;;;7.43;;
2305;SDS011;1161;51.922;8.896;2024-03-25T04:35:28;17.83;;;6.30;;
2305;SDS011;1161;51.922;8.896;2024-03-25T04:37:53;33.43;;;8.10;;
2305;SDS011;1161;51.922;8.896;2024-03-25T04:40:20;24.10;;;7.17;;
2305;SDS011;1161;51.922;8.896;2024-03-25T04:42:47;16.47;;;5.93;;
2305;SDS011;1161;51.922;8.896;2024-03-25T04:45:13;28.23;;;6.47;;
2305;SDS011;1161;51.922;8.896;2024-03-25T04:47:39;20.77;;;6.43;;
2305;SDS011;1161;51.922;8.896;2024-03-25T04:50:06;35.50;;;7.97;;
2305;SDS011;1161;51.922;8.896;2024-03-25T04:52:32;18.80;;;5.43;;
2305;SDS011;1161;51.922;8.896;2024-03-25T04:54:58;23.77;;;7.23;;
2305;SDS011;1161;51.922;8.896;2024-03-25T04:57:24;27.13;;;6.30;;
2305;SDS011;1161;51.922;8.896;2024-03-25T04:59:52;18.23;;;5.60;;
2305;SDS011;1161;51.922;8.896;2024-03-25T05:02:17;25.20;;;6.00;;
2305;SDS011;1161;51.922;8.896;2024-03-25T05:04:44;28.70;;;7.33;;
2305;SDS011;1161;51.922;8.896;2024-03-25T05:07:09;30.47;;;7.80;;
2305;SDS011;1161;51.922;8.896;2024-03-25T05:09:36;32.60;;;8.37;;
2305;SDS011;1161;51.922;8.896;2024-03-25T05:12:02;28.87;;;6.73;;
2305;SDS011;1161;51.922;8.896;2024-03-25T05:14:28;23.50;;;9.50;;
2305;SDS011;1161;51.922;8.896;2024-03-25T05:16:55;25.97;;;7.90;;
2305;SDS011;1161;51.922;8.896;2024-03-25T05:19:21;25.50;;;6.60;;
2305;SDS011;1161;51.922;8.896;2024-03-25T05:21:47;29.97;;;7.20;;
2305;SDS011;1161;51.922;8.896;2024-03-25T05:24:13;17.80;;;6.30;;
2305;SDS011;1161;51.922;8.896;2024-03-25T05:26:39;42.70;;;6.70;;
2305;SDS011;1161;51.922;8.896;2024-03-25T05:29:05;19.50;;;5.63;;
2305;SDS011;1161;51.922;8.896;2024-03-25T05:31:30;17.37;;;5.30;;
2305;SDS011;1161;51.922;8.896;2024-03-25T05:33:58;14.03;;;5.90;;
2305;SDS011;1161;51.922;8.896;2024-03-25T05:36:23;24.17;;;6.57;;
2305;SDS011;1161;51.922;8.896;2024-03-25T05:38:49;20.63;;;5.87;;
2305;SDS011;1161;51.922;8.896;2024-03-25T05:41:15;24.13;;;6.87;;
2305;SDS011;1161;51.922;8.896;2024-03-25T05:43:41;22.40;;;6.60;;
2305;SDS011;1161;51.922;8.896;2024-03-25T05:46:07;15.73;;;5.67;;
2305;SDS011;1161;51.922;8.896;2024-03-25T05:48:33;34.17;;;8.97;;
2305;SDS011;1161;51.922;8.896;2024-03-25T05:51:00;28.83;;;7.40;;
2305;SDS011;1161;51.922;8.896;2024-03-25T05:53:27;17.73;;;7.30;;
2305;SDS011;1161;51.922;8.896;2024-03-25T05:55:53;25.80;;;7.00;;
2305;SDS011;1161;51.922;8.896;2024-03-25T05:58:20;18.47;;;6.07;;
2305;SDS011;1161;51.922;8.896;2024-03-25T06:00:47;8.77;;;3.70;;
2305;SDS011;1161;51.922;8.896;2024-03-25T06:03:13;21.83;;;7.50;;
2305;SDS011;1161;51.922;8.896;2024-03-25T06:05:39;17.53;;;5.53;;
2305;SDS011;1161;51.922;8.896;2024-03-25T06:08:07;12.83;;;4.10;;
2305;SDS011;1161;51.922;8.896;2024-03-25T06:10:36;10.10;;;4.20;;
2305;SDS011;1161;51.922;8.896;2024-03-25T06:13:03;12.57;;;5.70;;
2305;SDS011;1161;51.922;8.896;2024-03-25T06:15:29;15.77;;;7.80;;
2305;SDS011;1161;51.922;8.896;2024-03-25T06:17:55;18.83;;;6.70;;
2305;SDS011;1161;51.922;8.896;2024-03-25T06:20:21;9.07;;;4.50;;
2305;SDS011;1161;51.922;8.896;2024-03-25T06:22:47;23.97;;;6.70;;
2305;SDS011;1161;51.922;8.896;2024-03-25T06:25:14;13.40;;;4.60;;
2305;SDS011;1161;51.922;8.896;2024-03-25T06:27:40;27.90;;;6.30;;
2305;SDS011;1161;51.922;8.896;2024-03-25T06:30:07;38.87;;;6.60;;
2305;SDS011;1161;51.922;8.896;2024-03-25T06:32:52;20.90;;;6.60;;
2305;SDS011;1161;51.922;8.896;2024-03-25T06:35:36;19.00;;;5.47;;
2305;SDS011;1161;51.922;8.896;2024-03-25T06:38:02;20.13;;;5.90;;
2305;SDS011;1161;51.922;8.896;2024-03-25T06:40:30;27.53;;;6.60;;
2305;SDS011;1161;51.922;8.896;2024-03-25T06:42:56;11.50;;;6.00;;
2305;SDS011;1161;51.922;8.896;2024-03-25T06:45:22;14.80;;;5.60;;
2305;SDS011;1161;51.922;8.896;2024-03-25T06:47:48;24.33;;;7.50;;
2305;SDS011;1161;51.922;8.896;2024-03-25T06:50:14;12.30;;;6.27;;
2305;SDS011;1161;51.922;8.896;2024-03-25T06:52:40;15.37;;;4.80;;
2305;SDS011;1161;51.922;8.896;2024-03-25T06:55:06;26.73;;;5.50;;
2305;SDS011;1161;51.922;8.896;2024-03-25T06:57:34;18.50;;;5.90;;
2305;SDS011;1161;51.922;8.896;2024-03-25T07:00:00;13.53;;;5.20;;
2305;SDS011;1161;51.922;8.896;2024-03-25T07:02:26;13.23;;;4.87;;
2305;SDS011;1161;51.922;8.896;2024-03-25T07:04:52;9.37;;;5.37;;
2305;SDS011;1161;51.922;8.896;2024-03-25T07:07:18;14.10;;;6.50;;
2305;SDS011;1161;51.922;8.896;2024-03-25T07:09:44;9.47;;;5.03;;
2305;SDS011;1161;51.922;8.896;2024-03-25T07:12:10;12.60;;;6.47;;
2305;SDS011;1161;51.922;8.896;2024-03-25T07:14:37;35.37;;;6.00;;
2305;SDS011;1161;51.922;8.896;2024-03-25T07:17:03;17.20;;;6.47;;
2305;SDS011;1161;51.922;8.896;2024-03-25T07:19:29;25.57;;;5.83;;
2305;SDS011;1161;51.922;8.896;2024-03-25T07:21:55;18.23;;;6.30;;
2305;SDS011;1161;51.922;8.896;2024-03-25T07:24:20;19.57;;;7.10;;
2305;SDS011;1161;51.922;8.896;2024-03-25T07:26:47;29.07;;;7.80;;
2305;SDS011;1161;51.922;8.896;2024-03-25T07:29:13;15.83;;;4.90;;
2305;SDS011;1161;51.922;8.896;2024-03-25T07:31:40;14.87;;;6.30;;
2305;SDS011;1161;51.922;8.896;2024-03-25T07:34:06;19.80;;;5.57;;
2305;SDS011;1161;51.922;8.896;2024-03-25T07:36:32;35.33;;;7.47;;
2305;SDS011;1161;51.922;8.896;2024-03-25T07:38:58;20.90;;;6.30;;
2305;SDS011;1161;51.922;8.896;2024-03-25T07:41:24;18.00;;;7.50;;
2305;SDS011;1161;51.922;8.896;2024-03-25T07:43:50;17.90;;;6.07;;
2305;SDS011;1161;51.922;8.896;2024-03-25T07:46:16;13.70;;;5.77;;
2305;SDS011;1161;51.922;8.896;2024-03-25T07:48:43;14.90;;;5.83;;
2305;SDS011;1161;51.922;8.896;2024-03-25T07:51:09;13.57;;;7.03;;
2305;SDS011;1161;51.922;8.896;2024-03-25T07:53:35;28.93;;;5.70;;
2305;SDS011;1161;51.922;8.896;2024-03-25T07:56:00;18.13;;;6.33;;
2305;SDS011;1161;51.922;8.896;2024-03-25T07:58:26;9.20;;;6.20;;
2305;SDS011;1161;51.922;8.896;2024-03-25T08:00:52;20.43;;;5.37;;
2305;SDS011;1161;51.922;8.896;2024-03-25T08:03:18;22.03;;;6.37;;
2305;SDS011;1161;51.922;8.896;2024-03-25T08:05:45;16.17;;;7.20;;
2305;SDS011;1161;51.922;8.896;2024-03-25T08:08:11;21.70;;;5.90;;
2305;SDS011;1161;51.922;8.896;2024-03-25T08:10:37;12.23;;;5.73;;
2305;SDS011;1161;51.922;8.896;2024-03-25T08:13:03;18.93;;;6.43;;
2305;SDS011;1161;51.922;8.896;2024-03-25T08:15:31;17.93;;;6.73;;
2305;SDS011;1161;51.922;8.896;2024-03-25T08:17:57;14.73;;;6.77;;
2305;SDS011;1161;51.922;8.896;2024-03-25T08:20:23;27.23;;;6.70;;
2305;SDS011;1161;51.922;8.896;2024-03-25T08:22:50;15.40;;;6.20;;
2305;SDS011;1161;51.922;8.896;2024-03-25T08:25:16;19.33;;;6.30;;
2305;SDS011;1161;51.922;8.896;2024-03-25T08:27:41;18.47;;;7.00;;
2305;SDS011;1161;51.922;8.896;2024-03-25T08:30:08;26.03;;;6.80;;
2305;SDS011;1161;51.922;8.896;2024-03-25T08:32:35;21.70;;;6.70;;
2305;SDS011;1161;51.922;8.896;2024-03-25T08:35:01;20.03;;;6.13;;
2305;SDS011;1161;51.922;8.896;2024-03-25T08:37:27;30.00;;;7.10;;
2305;SDS011;1161;51.922;8.896;2024-03-25T08:39:54;26.43;;;6.80;;
2305;SDS011;1161;51.922;8.896;2024-03-25T08:42:20;10.10;;;5.20;;
2305;SDS011;1161;51.922;8.896;2024-03-25T08:44:46;14.70;;;5.97;;
2305;SDS011;1161;51.922;8.896;2024-03-25T08:47:12;18.83;;;5.13;;
2305;SDS011;1161;51.922;8.896;2024-03-25T08:49:38;14.90;;;5.50;;
2305;SDS011;1161;51.922;8.896;2024-03-25T08:52:04;8.03;;;3.03;;
2305;SDS011;1161;51.922;8.896;2024-03-25T08:54:30;5.83;;;3.70;;
2305;SDS011;1161;51.922;8.896;2024-03-25T08:56:58;7.30;;;2.90;;
2305;SDS011;1161;51.922;8.896;2024-03-25T08:59:24;5.07;;;3.10;;
2305;SDS011;1161;51.922;8.896;2024-03-25T09:01:49;8.90;;;3.70;;
2305;SDS011;1161;51.922;8.896;2024-03-25T09:04:15;10.23;;;2.87;;
2305;SDS011;1161;51.922;8.896;2024-03-25T09:06:41;6.73;;;3.53;;
2305;SDS011;1161;51.922;8.896;2024-03-25T09:09:07;5.90;;;3.23;;
2305;SDS011;1161;51.922;8.896;2024-03-25T09:11:51;8.60;;;4.23;;
2305;SDS011;1161;51.922;8.896;2024-03-25T09:14:18;9.30;;;5.30;;
2305;SDS011;1161;51.922;8.896;2024-03-25T09:16:45;11.90;;;4.70;;
2305;SDS011;1161;51.922;8.896;2024-03-25T09:19:10;16.50;;;5.03;;
2305;SDS011;1161;51.922;8.896;2024-03-25T09:21:36;22.60;;;7.20;;
2305;SDS011;1161;51.922;8.896;2024-03-25T09:24:03;19.20;;;8.70;;
2305;SDS011;1161;51.922;8.896;2024-03-25T09:26:29;26.70;;;8.23;;
2305;SDS011;1161;51.922;8.896;2024-03-25T09:28:55;21.90;;;6.73;;
2305;SDS011;1161;51.922;8.896;2024-03-25T09:31:22;21.23;;;7.20;;
2305;SDS011;1161;51.922;8.896;2024-03-25T09:33:48;19.80;;;6.53;;
2305;SDS011;1161;51.922;8.896;2024-03-25T09:36:15;19.27;;;5.80;;
2305;SDS011;1161;51.922;8.896;2024-03-25T09:38:41;30.23;;;8.23;;
2305;SDS011;1161;51.922;8.896;2024-03-25T09:41:08;16.90;;;6.67;;
2305;SDS011;1161;51.922;8.896;2024-03-25T09:43:37;28.77;;;6.80;;
2305;SDS011;1161;51.922;8.896;2024-03-25T09:46:08;15.90;;;5.80;;
2305;SDS011;1161;51.922;8.896;2024-03-25T09:48:36;14.43;;;5.63;;
2305;SDS011;1161;51.922;8.896;2024-03-25T09:51:02;32.80;;;6.00;;
2305;SDS011;1161;51.922;8.896;2024-03-25T09:53:29;18.03;;;6.90;;
2305;SDS011;1161;51.922;8.896;2024-03-25T09:55:55;13.93;;;5.50;;
2305;SDS011;1161;51.922;8.896;2024-03-25T09:58:22;15.20;;;5.20;;
2305;SDS011;1161;51.922;8.896;2024-03-25T10:00:48;10.97;;;4.87;;
2305;SDS011;1161;51.922;8.896;2024-03-25T10:03:14;13.50;;;4.53;;
2305;SDS011;1161;51.922;8.896;2024-03-25T10:05:41;9.10;;;3.63;;
2305;SDS011;1161;51.922;8.896;2024-03-25T10:08:07;10.23;;;5.30;;
2305;SDS011;1161;51.922;8.896;2024-03-25T10:10:34;10.80;;;4.63;;
2305;SDS011;1161;51.922;8.896;2024-03-25T10:12:59;5.50;;;2.40;;
2305;SDS011;1161;51.922;8.896;2024-03-25T10:15:26;4.07;;;2.67;;
2305;SDS011;1161;51.922;8.896;2024-03-25T10:17:52;8.53;;;2.37;;
2305;SDS011;1161;51.922;8.896;2024-03-25T10:20:18;7.73;;;2.60;;
2305;SDS011;1161;51.922;8.896;2024-03-25T10:22:46;8.87;;;3.10;;
2305;SDS011;1161;51.922;8.896;2024-03-25T10:25:22;14.27;;;2.60;;
2305;SDS011;1161;51.922;8.896;2024-03-25T10:27:55;7.40;;;3.17;;
2305;SDS011;1161;51.922;8.896;2024-03-25T10:30:21;4.70;;;3.03;;
2305;SDS011;1161;51.922;8.896;2024-03-25T10:32:57;3.30;;;3.00;;
2305;SDS011;1161;51.922;8.896;2024-03-25T10:35:25;7.53;;;2.33;;
2305;SDS011;1161;51.922;8.896;2024-03-25T10:37:53;7.00;;;3.67;;
2305;SDS011;1161;51.922;8.896;2024-03-25T10:40:22;11.57;;;3.10;;
2305;SDS011;1161;51.922;8.896;2024-03-25T10:42:49;7.00;;;3.13;;
2305;SDS011;1161;51.922;8.896;2024-03-25T10:45:16;11.00;;;3.10;;
2305;SDS011;1161;51.922;8.896;2024-03-25T10:47:41;16.63;;;2.73;;
2305;SDS011;1161;51.922;8.896;2024-03-25T10:50:08;11.77;;;3.57;;
2305;SDS011;1161;51.922;8.896;2024-03-25T10:52:36;13.50;;;3.63;;
2305;SDS011;1161;51.922;8.896;2024-03-25T10:55:04;15.23;;;3.67;;
2305;SDS011;1161;51.922;8.896;2024-03-25T10:57:31;14.20;;;4.00;;
2305;SDS011;1161;51.922;8.896;2024-03-25T10:59:57;7.97;;;4.60;;
2305;SDS011;1161;51.922;8.896;2024-03-25T11:02:24;8.37;;;3.30;;
2305;SDS011;1161;51.922;8.896;2024-03-25T11:04:50;9.93;;;3.43;;
2305;SDS011;1161;51.922;8.896;2024-03-25T11:07:16;3.23;;;2.20;;
2305;SDS011;1161;51.922;8.896;2024-03-25T11:09:42;16.10;;;3.30;;
2305;SDS011;1161;51.922;8.896;2024-03-25T11:12:11;7.27;;;2.73;;
2305;SDS011;1161;51.922;8.896;2024-03-25T11:14:37;2.80;;;1.70;;
2305;SDS011;1161;51.922;8.896;2024-03-25T11:17:13;4.93;;;2.07;;
2305;SDS011;1161;51.922;8.896;2024-03-25T11:19:40;12.20;;;2.60;;
2305;SDS011;1161;51.922;8.896;2024-03-25T11:22:06;11.37;;;2.07;;
2305;SDS011;1161;51.922;8.896;2024-03-25T11:24:33;6.93;;;2.27;;
2305;SDS011;1161;51.922;8.896;2024-03-25T11:27:00;3.00;;;2.30;;
2305;SDS011;1161;51.922;8.896;2024-03-25T11:29:27;3.80;;;2.27;;
2305;SDS011;1161;51.922;8.896;2024-03-25T11:31:53;10.60;;;3.00;;
2305;SDS011;1161;51.922;8.896;2024-03-25T11:34:20;8.03;;;3.10;;
2305;SDS011;1161;51.922;8.896;2024-03-25T11:36:46;8.07;;;3.00;;
2305;SDS011;1161;51.922;8.896;2024-03-25T11:39:12;8.40;;;4.00;;
2305;SDS011;1161;51.922;8.896;2024-03-25T11:41:38;12.63;;;3.17;;
2305;SDS011;1161;51.922;8.896;2024-03-25T11:44:05;4.30;;;3.03;;
2305;SDS011;1161;51.922;8.896;2024-03-25T11:46:32;8.63;;;2.53;;
2305;SDS011;1161;51.922;8.896;2024-03-25T11:49:01;13.73;;;3.30;;
2305;SDS011;1161;51.922;8.896;2024-03-25T11:51:28;19.43;;;3.47;;
2305;SDS011;1161;51.922;8.896;2024-03-25T11:53:54;20.93;;;5.40;;
2305;SDS011;1161;51.922;8.896;2024-03-25T11:56:19;18.33;;;4.10;;
2305;SDS011;1161;51.922;8.896;2024-03-25T11:58:46;12.33;;;2.97;;
2305;SDS011;1161;51.922;8.896;2024-03-25T12:01:12;13.73;;;4.87;;
2305;SDS011;1161;51.922;8.896;2024-03-25T12:03:39;9.93;;;2.60;;
2305;SDS011;1161;51.922;8.896;2024-03-25T12:06:05;11.73;;;3.50;;
2305;SDS011;1161;51.922;8.896;2024-03-25T12:08:31;6.97;;;3.60;;
2305;SDS011;1161;51.922;8.896;2024-03-25T12:10:57;8.20;;;3.20;;
2305;SDS011;1161;51.922;8.896;2024-03-25T12:13:48;7.53;;;3.30;;
2305;SDS011;1161;51.922;8.896;2024-03-25T12:16:14;5.70;;;2.90;;
2305;SDS011;1161;51.922;8.896;2024-03-25T12:18:42;12.03;;;3.17;;
2305;SDS011;1161;51.922;8.896;2024-03-25T12:21:08;5.90;;;2.93;;
2305;SDS011;1161;51.922;8.896;2024-03-25T12:23:34;4.43;;;3.30;;
2305;SDS011;1161;51.922;8.896;2024-03-25T12:25:59;7.40;;;2.40;;
2305;SDS011;1161;51.922;8.896;2024-03-25T12:28:26;9.97;;;4.20;;
2305;SDS011;1161;51.922;8.896;2024-03-25T12:30:52;11.37;;;4.77;;
2305;SDS011;1161;51.922;8.896;2024-03-25T12:33:19;17.90;;;6.27;;
2305;SDS011;1161;51.922;8.896;2024-03-25T12:35:46;13.57;;;3.90;;
2305;SDS011;1161;51.922;8.896;2024-03-25T12:38:22;8.93;;;3.87;;
2305;SDS011;1161;51.922;8.896;2024-03-25T12:40:49;8.77;;;4.73;;
2305;SDS011;1161;51.922;8.896;2024-03-25T12:43:15;7.70;;;3.10;;
2305;SDS011;1161;51.922;8.896;2024-03-25T12:45:41;7.03;;;3.83;;
2305;SDS011;1161;51.922;8.896;2024-03-25T12:48:09;6.60;;;3.73;;
2305;SDS011;1161;51.922;8.896;2024-03-25T12:50:35;6.60;;;4.10;;
2305;SDS011;1161;51.922;8.896;2024-03-25T12:53:02;15.83;;;3.40;;
2305;SDS011;1161;51.922;8.896;2024-03-25T12:55:28;19.07;;;3.57;;
2305;SDS011;1161;51.922;8.896;2024-03-25T12:57:55;8.67;;;3.73;;
2305;SDS011;1161;51.922;8.896;2024-03-25T13:00:21;13.43;;;3.30;;
2305;SDS011;1161;51.922;8.896;2024-03-25T13:02:47;8.90;;;4.30;;
2305;SDS011;1161;51.922;8.896;2024-03-25T13:05:13;16.53;;;3.30;;
2305;SDS011;1161;51.922;8.896;2024-03-25T13:07:39;9.03;;;3.43;;
2305;SDS011;1161;51.922;8.896;2024-03-25T13:10:06;10.00;;;3.33;;
2305;SDS011;1161;51.922;8.896;2024-03-25T13:12:32;13.73;;;3.77;;
2305;SDS011;1161;51.922;8.896;2024-03-25T13:14:58;9.63;;;3.30;;
2305;SDS011;1161;51.922;8.896;2024-03-25T13:17:24;10.40;;;2.80;;
2305;SDS011;1161;51.922;8.896;2024-03-25T13:19:50;6.33;;;2.20;;
2305;SDS011;1161;51.922;8.896;2024-03-25T13:22:16;10.63;;;5.20;;
2305;SDS011;1161;51.922;8.896;2024-03-25T13:24:42;12.33;;;2.90;;
2305;SDS011;1161;51.922;8.896;2024-03-25T13:27:09;5.33;;;2.40;;
2305;SDS011;1161;51.922;8.896;2024-03-25T13:29:35;4.20;;;2.47;;
2305;SDS011;1161;51.922;8.896;2024-03-25T13:32:01;9.07;;;2.63;;
2305;SDS011;1161;51.922;8.896;2024-03-25T13:34:27;12.90;;;2.77;;
2305;SDS011;1161;51.922;8.896;2024-03-25T13:36:52;5.33;;;3.03;;
2305;SDS011;1161;51.922;8.896;2024-03-25T13:39:18;13.67;;;2.40;;
2305;SDS011;1161;51.922;8.896;2024-03-25T13:41:44;2.53;;;2.37;;
2305;SDS011;1161;51.922;8.896;2024-03-25T13:44:12;8.60;;;2.37;;
2305;SDS011;1161;51.922;8.896;2024-03-25T13:46:38;4.73;;;2.50;;
2305;SDS011;1161;51.922;8.896;2024-03-25T13:49:04;6.17;;;2.63;;
2305;SDS011;1161;51.922;8.896;2024-03-25T13:51:29;4.80;;;2.90;;
2305;SDS011;1161;51.922;8.896;2024-03-25T13:53:55;5.67;;;3.80;;
2305;SDS011;1161;51.922;8.896;2024-03-25T13:56:21;5.60;;;2.50;;
2305;SDS011;1161;51.922;8.896;2024-03-25T13:58:47;9.70;;;2.67;;
2305;SDS011;1161;51.922;8.896;2024-03-25T14:01:14;3.73;;;3.43;;
2305;SDS011;1161;51.922;8.896;2024-03-25T14:03:40;8.23;;;2.57;;
2305;SDS011;1161;51.922;8.896;2024-03-25T14:06:06;5.30;;;2.20;;
2305;SDS011;1161;51.922;8.896;2024-03-25T14:08:32;10.73;;;2.80;;
2305;SDS011;1161;51.922;8.896;2024-03-25T14:10:58;6.80;;;3.40;;
2305;SDS011;1161;51.922;8.896;2024-03-25T14:13:24;6.20;;;2.80;;
2305;SDS011;1161;51.922;8.896;2024-03-25T14:15:50;2.90;;;2.37;;
2305;SDS011;1161;51.922;8.896;2024-03-25T14:18:17;4.47;;;3.10;;
2305;SDS011;1161;51.922;8.896;2024-03-25T14:20:43;9.57;;;2.37;;
2305;SDS011;1161;51.922;8.896;2024-03-25T14:23:09;6.73;;;2.27;;
2305;SDS011;1161;51.922;8.896;2024-03-25T14:25:35;7.13;;;3.63;;
2305;SDS011;1161;51.922;8.896;2024-03-25T14:28:01;3.43;;;3.17;;
2305;SDS011;1161;51.922;8.896;2024-03-25T14:30:27;20.43;;;3.40;;
2305;SDS011;1161;51.922;8.896;2024-03-25T14:32:53;6.40;;;3.40;;
2305;SDS011;1161;51.922;8.896;2024-03-25T14:35:20;7.13;;;3.17;;
2305;SDS011;1161;51.922;8.896;2024-03-25T14:37:46;9.90;;;4.33;;
2305;SDS011;1161;51.922;8.896;2024-03-25T14:40:14;7.00;;;3.37;;
2305;SDS011;1161;51.922;8.896;2024-03-25T14:42:40;9.00;;;2.70;;
2305;SDS011;1161;51.922;8.896;2024-03-25T14:45:07;7.00;;;3.60;;
2305;SDS011;1161;51.922;8.896;2024-03-25T14:47:33;3.63;;;2.83;;
2305;SDS011;1161;51.922;8.896;2024-03-25T14:49:58;11.00;;;3.80;;
2305;SDS011;1161;51.922;8.896;2024-03-25T14:52:26;18.93;;;4.17;;
2305;SDS011;1161;51.922;8.896;2024-03-25T14:54:52;10.97;;;3.90;;
2305;SDS011;1161;51.922;8.896;2024-03-25T14:57:18;7.63;;;3.77;;
2305;SDS011;1161;51.922;8.896;2024-03-25T14:59:44;6.70;;;2.73;;
2305;SDS011;1161;51.922;8.896;2024-03-25T15:02:10;6.23;;;3.43;;